Time;durP1;ratioP1;P1;durP2;ratioP2;P2;SDS_P1;SDS_P2;PMS_P1;PMS_P2;Temp;Humidity;BMP_temperature;BMP_pressure;BME280_temperature;BME280_humidity;BME280_pressure;Samples;Min_cycle;Max_cycle;Signal;HPM_P1;HPM_P2
2022/07/22 00:01:28;;;;;;;1.50;1.43;;;22.70;92.10;;;;;;5060516;28;20662;-83
2022/07/22 00:03:53;;;;;;;1.53;1.43;;;22.70;92.10;;;;;;5071266;28;20271;-85
2022/07/22 00:06:19;;;;;;;2.07;1.93;;;22.60;92.20;;;;;;5072708;28;20183;-84
2022/07/22 00:08:45;;;;;;;3.30;3.10;;;22.60;92.30;;;;;;5067029;28;20209;-84
2022/07/22 00:11:11;;;;;;;2.87;2.33;;;22.60;92.50;;;;;;5065878;28;20179;-83
2022/07/22 00:13:36;;;;;;;2.57;1.93;;;22.50;92.60;;;;;;5072619;28;20667;-83
2022/07/22 00:16:02;;;;;;;1.73;1.57;;;22.50;92.70;;;;;;5073360;28;20203;-84
2022/07/22 00:18:28;;;;;;;3.60;2.30;;;22.50;92.90;;;;;;5059981;28;20195;-84
2022/07/22 00:20:54;;;;;;;2.67;2.47;;;22.50;92.80;;;;;;5074451;28;20652;-83
2022/07/22 00:23:19;;;;;;;2.07;1.93;;;22.50;92.90;;;;;;5073290;28;20437;-84
2022/07/22 00:25:45;;;;;;;2.37;2.20;;;22.50;92.90;;;;;;5072567;28;20266;-84
2022/07/22 00:28:10;;;;;;;3.17;2.30;;;22.50;93.10;;;;;;5072546;28;20195;-83
2022/07/22 00:30:36;;;;;;;1.80;1.63;;;22.50;93.00;;;;;;5072366;28;20190;-84
2022/07/22 00:33:03;;;;;;;2.80;2.00;;;22.50;93.10;;;;;;5064445;28;20183;-86
2022/07/22 00:35:28;;;;;;;3.10;2.27;;;22.40;93.30;;;;;;5064403;28;20648;-83
2022/07/22 00:37:54;;;;;;;2.73;2.00;;;22.40;93.30;;;;;;5067956;28;20461;-83
2022/07/22 00:40:19;;;;;;;2.87;1.93;;;22.40;93.30;;;;;;5073277;28;20191;-83
2022/07/22 00:42:45;;;;;;;2.43;2.13;;;22.40;93.50;;;;;;5073356;28;20213;-83
2022/07/22 00:45:11;;;;;;;7.40;3.20;;;22.40;93.50;;;;;;5072482;28;20176;-83
2022/07/22 00:47:36;;;;;;;1.77;1.73;;;22.30;93.60;;;;;;5058099;28;20540;-83
2022/07/22 00:50:04;;;;;;;4.80;2.30;;;22.30;93.50;;;;;;5052162;28;20187;-83
2022/07/22 00:52:31;;;;;;;4.63;2.67;;;22.30;93.60;;;;;;5068705;28;20241;-84
2022/07/22 00:54:58;;;;;;;4.43;2.20;;;22.20;93.70;;;;;;5072657;28;20434;-84
2022/07/22 00:57:24;;;;;;;3.00;2.30;;;22.20;94.00;;;;;;5073703;28;20780;-86
2022/07/22 00:59:50;;;;;;;1.93;1.83;;;22.10;94.10;;;;;;5072214;28;20414;-84
2022/07/22 01:02:19;;;;;;;1.50;1.40;;;22.00;94.40;;;;;;5057273;28;20425;-84
2022/07/22 01:04:48;;;;;;;4.90;2.60;;;22.00;94.60;;;;;;5056052;28;20195;-83
2022/07/22 01:07:14;;;;;;;3.43;3.10;;;21.90;94.90;;;;;;5054856;28;20912;-84
2022/07/22 01:09:44;;;;;;;3.13;2.33;;;21.70;95.20;;;;;;5067245;28;20529;-84
2022/07/22 01:12:10;;;;;;;2.00;1.90;;;21.70;95.40;;;;;;5053707;28;20795;-84
2022/07/22 01:14:36;;;;;;;2.23;2.13;;;21.70;95.50;;;;;;5054052;28;20426;-84
2022/07/22 01:17:02;;;;;;;1.93;1.83;;;21.60;95.60;;;;;;5062393;28;20536;-84
2022/07/22 01:19:28;;;;;;;3.07;2.47;;;21.60;95.70;;;;;;5073411;28;20218;-84
2022/07/22 01:21:54;;;;;;;3.20;2.60;;;21.60;95.90;;;;;;5064909;28;20924;-84
2022/07/22 01:24:20;;;;;;;3.70;2.73;;;21.60;95.80;;;;;;5053386;28;20191;-84
2022/07/22 01:26:45;;;;;;;4.63;2.67;;;21.50;95.90;;;;;;5061439;28;20179;-82
2022/07/22 01:29:11;;;;;;;2.60;2.07;;;21.50;95.90;;;;;;5070164;28;20298;-84
2022/07/22 01:31:37;;;;;;;2.50;2.30;;;21.50;96.10;;;;;;5061681;28;20210;-85
2022/07/22 01:34:02;;;;;;;3.57;2.17;;;21.40;96.10;;;;;;5071029;28;20190;-84
2022/07/22 01:36:29;;;;;;;4.00;2.17;;;21.30;96.40;;;;;;5072946;28;20199;-84
2022/07/22 01:38:56;;;;;;;3.33;2.53;;;21.30;96.50;;;;;;5071475;28;20222;-82
2022/07/22 01:41:21;;;;;;;4.13;2.20;;;21.30;96.80;;;;;;5070776;28;20516;-84
2022/07/22 01:43:47;;;;;;;3.83;2.17;;;21.20;96.90;;;;;;5070903;28;20262;-84
2022/07/22 01:46:13;;;;;;;1.90;1.80;;;21.30;96.80;;;;;;5071347;28;20183;-84
2022/07/22 01:48:40;;;;;;;4.00;2.70;;;21.30;96.70;;;;;;5071331;28;20210;-84
2022/07/22 01:51:06;;;;;;;2.20;1.60;;;21.30;96.90;;;;;;5071662;28;20469;-84
2022/07/22 01:53:32;;;;;;;1.60;1.50;;;21.30;96.90;;;;;;5060010;28;20540;-85
2022/07/22 01:55:57;;;;;;;1.50;1.40;;;21.30;97.00;;;;;;5056946;28;20211;-85
2022/07/22 01:58:23;;;;;;;3.33;2.77;;;21.30;97.00;;;;;;5070725;28;20440;-84
2022/07/22 02:00:49;;;;;;;1.97;1.87;;;21.30;96.90;;;;;;5071871;28;20175;-83
2022/07/22 02:03:15;;;;;;;2.13;2.00;;;21.30;96.90;;;;;;5065970;28;20653;-84
2022/07/22 02:05:41;;;;;;;2.00;1.80;;;21.20;97.20;;;;;;5066965;28;20699;-84
2022/07/22 02:08:09;;;;;;;2.33;1.90;;;21.20;97.30;;;;;;5058940;28;20194;-84
2022/07/22 02:10:36;;;;;;;4.03;2.63;;;21.20;97.30;;;;;;5072410;28;20187;-84
2022/07/22 02:13:02;;;;;;;2.63;1.93;;;21.10;97.30;;;;;;5072438;28;20823;-84
2022/07/22 02:15:28;;;;;;;3.97;2.10;;;21.10;97.30;;;;;;5072273;28;20479;-84
2022/07/22 02:17:55;;;;;;;1.73;1.70;;;21.10;97.30;;;;;;5072430;28;20441;-84
2022/07/22 02:20:20;;;;;;;3.17;1.80;;;21.10;97.30;;;;;;5072324;28;21011;-84
2022/07/22 02:22:46;;;;;;;2.57;1.80;;;21.10;97.30;;;;;;5058655;28;20417;-84
2022/07/22 02:25:12;;;;;;;2.13;1.90;;;21.00;97.30;;;;;;5072529;28;20266;-84
2022/07/22 02:27:39;;;;;;;2.23;2.03;;;21.00;97.30;;;;;;5071757;28;20486;-84
2022/07/22 02:30:06;;;;;;;1.47;1.37;;;21.00;97.30;;;;;;5069989;28;20190;-84
2022/07/22 02:32:32;;;;;;;2.40;2.20;;;21.00;97.30;;;;;;5060699;28;20511;-84
2022/07/22 02:34:57;;;;;;;1.60;1.50;;;21.00;97.30;;;;;;5072134;28;20472;-84
2022/07/22 02:37:23;;;;;;;2.50;2.10;;;20.90;97.30;;;;;;5072103;28;20186;-84
2022/07/22 02:39:49;;;;;;;1.87;1.60;;;20.90;97.30;;;;;;5072168;28;20186;-84
2022/07/22 02:42:14;;;;;;;1.60;1.50;;;20.80;97.30;;;;;;5072220;28;20278;-84
2022/07/22 02:44:40;;;;;;;1.97;1.87;;;20.80;97.30;;;;;;5072717;28;20182;-84
2022/07/22 02:47:06;;;;;;;6.13;3.97;;;20.80;97.30;;;;;;5068830;28;20195;-84
2022/07/22 02:49:32;;;;;;;5.77;3.33;;;20.70;97.30;;;;;;5051976;28;20673;-84
2022/07/22 02:51:57;;;;;;;3.70;2.20;;;20.70;97.30;;;;;;5056079;28;20218;-84
2022/07/22 02:54:23;;;;;;;3.87;2.43;;;20.60;97.30;;;;;;5074267;28;20224;-86
2022/07/22 02:56:48;;;;;;;3.90;2.27;;;20.60;97.30;;;;;;5072665;28;20212;-84
2022/07/22 02:59:14;;;;;;;4.93;3.17;;;20.60;97.30;;;;;;5073873;28;20194;-84
2022/07/22 03:01:40;;;;;;;7.20;2.90;;;20.50;97.30;;;;;;5072051;28;20207;-84
2022/07/22 03:04:06;;;;;;;2.50;2.30;;;20.50;97.30;;;;;;5055906;28;20410;-84
2022/07/22 03:06:31;;;;;;;2.20;2.00;;;20.50;97.30;;;;;;5064421;28;20197;-84
2022/07/22 03:08:57;;;;;;;3.13;2.13;;;20.50;97.30;;;;;;5075570;28;20209;-84
2022/07/22 03:11:22;;;;;;;5.33;2.97;;;20.50;97.30;;;;;;5076752;28;20209;-84
2022/07/22 03:13:48;;;;;;;2.70;2.23;;;20.50;97.30;;;;;;5075328;28;20186;-84
2022/07/22 03:16:14;;;;;;;3.77;2.80;;;20.50;97.30;;;;;;5075178;28;20202;-84
2022/07/22 03:18:40;;;;;;;3.40;2.70;;;20.50;97.30;;;;;;5075422;28;20569;-84
2022/07/22 03:21:06;;;;;;;2.17;2.00;;;20.50;97.30;;;;;;5075450;28;20179;-84
2022/07/22 03:23:31;;;;;;;2.73;2.00;;;20.50;97.30;;;;;;5075403;28;20405;-84
2022/07/22 03:25:57;;;;;;;4.13;3.90;;;20.40;97.30;;;;;;5075545;28;20176;-84
2022/07/22 03:28:23;;;;;;;1.83;1.73;;;20.30;97.30;;;;;;5063702;28;20717;-84
2022/07/22 03:30:48;;;;;;;5.83;2.80;;;20.30;97.30;;;;;;5067405;28;20180;-84
2022/07/22 03:33:14;;;;;;;3.70;2.40;;;20.30;97.30;;;;;;5071005;28;20894;-85
2022/07/22 03:35:40;;;;;;;2.40;2.27;;;20.30;97.30;;;;;;5073661;28;20198;-84
2022/07/22 03:38:05;;;;;;;2.23;2.00;;;20.20;97.30;;;;;;5060010;28;20668;-86
2022/07/22 03:40:31;;;;;;;4.47;2.47;;;20.20;97.30;;;;;;5070606;28;20266;-84
2022/07/22 03:42:56;;;;;;;1.83;1.80;;;20.20;97.30;;;;;;5074031;28;20190;-84
2022/07/22 03:45:22;;;;;;;3.80;2.30;;;20.10;97.30;;;;;;5073294;28;20236;-85
2022/07/22 03:47:48;;;;;;;3.40;2.67;;;20.10;97.30;;;;;;5060582;28;20677;-85
2022/07/22 03:50:13;;;;;;;3.10;2.33;;;20.10;97.30;;;;;;5069683;28;20183;-84
2022/07/22 03:52:39;;;;;;;3.93;2.97;;;20.00;97.30;;;;;;5066259;28;20222;-84
2022/07/22 03:55:05;;;;;;;3.20;2.73;;;20.00;97.30;;;;;;5063048;28;20226;-84
2022/07/22 03:57:31;;;;;;;2.90;2.30;;;20.00;97.30;;;;;;5062334;28;20240;-85
2022/07/22 03:59:56;;;;;;;3.97;2.60;;;20.00;97.30;;;;;;5068263;28;20426;-85
2022/07/22 04:02:22;;;;;;;2.63;2.43;;;20.00;97.30;;;;;;5061303;28;20665;-84
2022/07/22 04:04:47;;;;;;;4.70;2.93;;;20.00;97.30;;;;;;5062419;28;20187;-83
2022/07/22 04:07:13;;;;;;;5.20;3.03;;;20.00;97.30;;;;;;5061629;28;20180;-83
2022/07/22 04:09:38;;;;;;;3.37;2.70;;;20.00;97.30;;;;;;5058215;28;20688;-84
2022/07/22 04:12:04;;;;;;;3.03;2.63;;;20.00;97.30;;;;;;5055015;28;20187;-84
2022/07/22 04:14:30;;;;;;;3.50;3.10;;;20.00;97.30;;;;;;5069190;28;20648;-84
2022/07/22 04:16:56;;;;;;;3.90;1.93;;;20.00;97.30;;;;;;5060463;28;20446;-84
2022/07/22 04:19:21;;;;;;;8.50;4.13;;;20.00;97.30;;;;;;5054956;28;20204;-86
2022/07/22 04:21:47;;;;;;;2.90;2.43;;;20.00;97.30;;;;;;5071369;28;20204;-85
2022/07/22 04:24:12;;;;;;;4.17;3.20;;;20.00;97.30;;;;;;5064479;28;20210;-85
2022/07/22 04:26:38;;;;;;;7.93;3.77;;;20.00;97.30;;;;;;5058504;28;20203;-86
2022/07/22 04:29:05;;;;;;;3.10;2.90;;;20.00;97.30;;;;;;5058927;28;20195;-86
2022/07/22 04:31:30;;;;;;;4.20;3.93;;;20.00;97.30;;;;;;5055254;28;20191;-85
2022/07/22 04:33:57;;;;;;;2.17;1.90;;;20.00;97.30;;;;;;5051132;28;20437;-86
2022/07/22 04:36:23;;;;;;;5.37;3.13;;;20.00;97.30;;;;;;5057597;28;20302;-86
2022/07/22 04:38:49;;;;;;;1.93;1.63;;;20.00;97.30;;;;;;5060777;28;20548;-87
2022/07/22 04:41:15;;;;;;;3.53;3.03;;;20.00;97.30;;;;;;5052353;28;20175;-87
2022/07/22 04:43:40;;;;;;;2.37;2.23;;;20.10;97.30;;;;;;5065717;28;20424;-85
2022/07/22 04:46:06;;;;;;;3.73;2.63;;;20.10;97.30;;;;;;5059603;28;20254;-85
2022/07/22 04:48:32;;;;;;;2.80;2.60;;;20.10;97.30;;;;;;5059397;28;20218;-85
2022/07/22 04:51:02;;;;;;;3.83;2.63;;;20.10;97.30;;;;;;5063224;28;20314;-85
2022/07/22 04:53:28;;;;;;;3.03;2.43;;;20.10;97.30;;;;;;5057556;28;20222;-85
2022/07/22 04:55:54;;;;;;;3.53;2.57;;;20.20;97.30;;;;;;5069206;28;20493;-85
2022/07/22 04:58:19;;;;;;;3.70;2.40;;;20.20;97.30;;;;;;5072070;28;20286;-85
2022/07/22 05:00:52;;;;;;;3.43;2.70;;;20.20;97.30;;;;;;5072787;28;20187;-86
2022/07/22 05:03:18;;;;;;;3.83;2.60;;;20.20;97.30;;;;;;5052698;28;20183;-85
2022/07/22 05:05:43;;;;;;;3.43;2.87;;;20.20;97.30;;;;;;5057385;28;20422;-86
2022/07/22 05:08:09;;;;;;;3.63;2.00;;;20.20;97.30;;;;;;5072647;28;20214;-85
2022/07/22 05:10:34;;;;;;;2.93;2.73;;;20.20;97.30;;;;;;5072612;28;20190;-86
2022/07/22 05:13:00;;;;;;;5.07;2.43;;;20.20;97.30;;;;;;5073025;28;20186;-84
2022/07/22 05:15:26;;;;;;;4.10;2.90;;;20.20;97.30;;;;;;5073140;28;20224;-85
2022/07/22 05:17:51;;;;;;;4.30;2.67;;;20.20;97.30;;;;;;5072628;28;20286;-85
2022/07/22 05:20:17;;;;;;;4.93;3.73;;;20.30;97.30;;;;;;5068822;28;20179;-86
2022/07/22 05:22:42;;;;;;;2.73;2.13;;;20.30;97.30;;;;;;5053973;28;20195;-85
2022/07/22 05:25:08;;;;;;;2.23;2.10;;;20.40;97.30;;;;;;5065504;28;20195;-85
2022/07/22 05:27:34;;;;;;;4.37;2.60;;;20.50;97.30;;;;;;5063169;28;20237;-86
2022/07/22 05:29:59;;;;;;;3.20;2.07;;;20.50;97.30;;;;;;5069770;28;20199;-86
2022/07/22 05:32:25;;;;;;;3.27;2.53;;;20.50;97.30;;;;;;5070102;28;20205;-86
2022/07/22 05:34:51;;;;;;;2.40;2.23;;;20.50;97.30;;;;;;5056623;28;20175;-86
2022/07/22 05:37:16;;;;;;;3.13;2.13;;;20.60;97.30;;;;;;5070473;28;20175;-86
2022/07/22 05:39:43;;;;;;;2.63;2.50;;;20.60;97.30;;;;;;5065030;28;20203;-86
2022/07/22 05:42:09;;;;;;;4.73;2.80;;;20.70;97.30;;;;;;5060836;28;20197;-86
2022/07/22 05:44:34;;;;;;;3.27;2.53;;;20.70;97.30;;;;;;5069124;28;20508;-86
2022/07/22 05:47:00;;;;;;;2.97;2.77;;;20.70;97.30;;;;;;5069477;28;20183;-86
2022/07/22 05:49:26;;;;;;;4.00;2.50;;;20.70;97.30;;;;;;5068844;28;20203;-87
2022/07/22 05:51:52;;;;;;;4.13;3.90;;;20.70;97.30;;;;;;5069827;28;20226;-86
2022/07/22 05:54:18;;;;;;;4.60;3.27;;;20.70;97.30;;;;;;5071243;28;20849;-85
2022/07/22 05:56:44;;;;;;;5.67;3.43;;;20.80;97.30;;;;;;5069594;28;20457;-86
2022/07/22 05:59:09;;;;;;;5.27;2.00;;;20.80;97.30;;;;;;5071960;28;20521;-85
2022/07/22 06:01:35;;;;;;;3.47;2.40;;;20.80;97.30;;;;;;5072153;28;20179;-87
2022/07/22 06:04:00;;;;;;;3.67;2.27;;;20.80;97.30;;;;;;5072073;28;20175;-84
2022/07/22 06:06:26;;;;;;;2.77;2.17;;;20.90;97.30;;;;;;5072401;28;20179;-84
2022/07/22 06:08:51;;;;;;;2.33;2.10;;;20.90;97.30;;;;;;5071977;28;20230;-83
2022/07/22 06:11:17;;;;;;;1.80;1.17;;;20.90;97.30;;;;;;5072262;28;20179;-84
2022/07/22 06:13:42;;;;;;;3.97;2.30;;;20.90;97.30;;;;;;5071724;28;20194;-84
2022/07/22 06:16:08;;;;;;;3.23;2.57;;;21.00;97.30;;;;;;5071964;28;20206;-84
2022/07/22 06:18:33;;;;;;;3.17;2.20;;;21.00;97.30;;;;;;5071932;28;20230;-84
2022/07/22 06:20:59;;;;;;;3.10;2.23;;;21.10;97.30;;;;;;5071351;28;20186;-84
2022/07/22 06:23:24;;;;;;;2.23;2.03;;;21.20;97.30;;;;;;5073001;28;20236;-85
2022/07/22 06:25:50;;;;;;;2.00;1.93;;;21.20;97.30;;;;;;5069396;28;20444;-83
2022/07/22 06:28:15;;;;;;;2.10;1.83;;;21.30;97.30;;;;;;5068160;28;20215;-85
2022/07/22 06:30:41;;;;;;;4.20;2.30;;;21.40;97.30;;;;;;5068972;28;20190;-84
2022/07/22 06:33:07;;;;;;;2.83;2.10;;;21.40;97.30;;;;;;5065404;28;20199;-85
2022/07/22 06:35:33;;;;;;;4.47;2.03;;;21.50;97.30;;;;;;5060247;28;20305;-89
2022/07/22 06:37:59;;;;;;;2.60;2.00;;;21.50;97.30;;;;;;5065599;28;20584;-84
2022/07/22 06:40:24;;;;;;;3.67;2.50;;;21.60;97.30;;;;;;5059158;28;20274;-85
2022/07/22 06:42:50;;;;;;;4.93;2.67;;;21.60;97.30;;;;;;5067708;28;20184;-85
2022/07/22 06:45:15;;;;;;;4.20;2.40;;;21.60;97.30;;;;;;5070113;28;20308;-85
2022/07/22 06:47:41;;;;;;;2.37;2.10;;;21.70;97.30;;;;;;5067543;28;20231;-85
2022/07/22 06:50:07;;;;;;;2.00;1.53;;;21.70;97.30;;;;;;5068970;28;20308;-85
2022/07/22 06:52:33;;;;;;;3.17;1.93;;;21.70;97.30;;;;;;5072424;28;20238;-86
2022/07/22 06:54:59;;;;;;;1.37;1.30;;;21.70;97.30;;;;;;5061138;28;20426;-86
2022/07/22 06:57:24;;;;;;;2.60;1.50;;;21.70;97.10;;;;;;5053546;28;20179;-86
2022/07/22 06:59:50;;;;;;;1.80;1.70;;;21.70;97.30;;;;;;5059904;28;20176;-84
2022/07/22 07:02:16;;;;;;;2.20;1.93;;;21.70;97.30;;;;;;5064566;28;20183;-85
2022/07/22 07:04:42;;;;;;;2.40;1.40;;;21.80;97.30;;;;;;5068104;28;20265;-84
2022/07/22 07:07:08;;;;;;;1.30;1.20;;;21.90;97.30;;;;;;5065718;28;20428;-85
2022/07/22 07:09:34;;;;;;;2.33;1.73;;;22.00;97.20;;;;;;5057979;28;20199;-86
2022/07/22 07:12:00;;;;;;;2.03;1.77;;;22.00;97.00;;;;;;5068011;28;20418;-86
2022/07/22 07:14:25;;;;;;;2.50;2.20;;;22.00;97.00;;;;;;5059338;28;20513;-86
2022/07/22 07:16:51;;;;;;;1.57;1.47;;;22.00;96.80;;;;;;5064460;28;20195;-84
2022/07/22 07:19:17;;;;;;;3.77;2.13;;;22.00;96.90;;;;;;5068263;28;20202;-85
2022/07/22 07:21:42;;;;;;;2.27;1.53;;;22.00;96.80;;;;;;5067455;28;20672;-86
2022/07/22 07:24:08;;;;;;;4.40;2.40;;;22.00;96.90;;;;;;5068273;28;20539;-85
2022/07/22 07:26:33;;;;;;;5.93;3.20;;;22.10;96.70;;;;;;5068551;28;20251;-86
2022/07/22 07:28:59;;;;;;;1.20;1.13;;;22.30;96.80;;;;;;5072958;28;20252;-84
2022/07/22 07:31:25;;;;;;;3.27;2.23;;;22.40;96.30;;;;;;5074408;28;20179;-83
2022/07/22 07:33:50;;;;;;;4.50;1.80;;;22.50;96.10;;;;;;5073501;28;20178;-84
2022/07/22 07:36:17;;;;;;;1.90;1.17;;;22.60;96.10;;;;;;5056953;28;20207;-83
2022/07/22 07:38:43;;;;;;;3.13;1.97;;;22.60;95.50;;;;;;5062461;28;20191;-83
2022/07/22 07:41:08;;;;;;;1.60;1.50;;;22.70;95.50;;;;;;5075293;28;20417;-84
2022/07/22 07:43:34;;;;;;;2.63;1.93;;;22.60;94.70;;;;;;5066479;28;20182;-84
2022/07/22 07:46:00;;;;;;;2.20;1.60;;;22.50;95.10;;;;;;5071805;28;20206;-83
2022/07/22 07:48:26;;;;;;;2.23;1.77;;;22.40;95.00;;;;;;5067172;28;20506;-83
2022/07/22 07:50:51;;;;;;;3.70;1.53;;;22.40;95.40;;;;;;5071226;28;20492;-84
2022/07/22 07:53:18;;;;;;;3.00;2.17;;;22.50;95.30;;;;;;5073054;28;20179;-84
2022/07/22 07:55:43;;;;;;;2.20;1.40;;;22.60;94.50;;;;;;5074325;28;20692;-84
2022/07/22 07:58:09;;;;;;;2.67;1.63;;;22.60;94.80;;;;;;5075374;28;20445;-83
2022/07/22 08:00:36;;;;;;;2.83;1.53;;;22.70;94.50;;;;;;5074791;28;20194;-85
2022/07/22 08:03:03;;;;;;;2.00;1.20;;;22.90;94.30;;;;;;5065595;28;20176;-84
2022/07/22 08:05:29;;;;;;;1.63;1.53;;;23.00;94.10;;;;;;5072023;28;20422;-84
2022/07/22 08:07:55;;;;;;;1.60;1.50;;;23.20;94.40;;;;;;5076653;28;20441;-81
2022/07/22 08:10:21;;;;;;;1.10;1.00;;;23.40;93.60;;;;;;5076791;28;20474;-83
2022/07/22 08:12:48;;;;;;;2.80;1.90;;;23.50;92.50;;;;;;5076351;28;20233;-84
2022/07/22 08:15:14;;;;;;;1.33;1.27;;;23.60;91.90;;;;;;5075868;28;20421;-84
2022/07/22 08:17:39;;;;;;;1.80;1.77;;;23.70;92.40;;;;;;5076952;28;21056;-82
2022/07/22 08:20:06;;;;;;;1.67;1.47;;;23.80;91.90;;;;;;5060327;28;20190;-82
2022/07/22 08:22:32;;;;;;;1.77;1.67;;;23.90;91.10;;;;;;5057274;28;20179;-83
2022/07/22 08:24:57;;;;;;;1.53;1.47;;;23.90;91.20;;;;;;5057514;28;20977;-82
2022/07/22 08:27:24;;;;;;;1.40;1.30;;;24.10;91.00;;;;;;5057027;28;20636;-84
2022/07/22 08:29:49;;;;;;;3.03;2.27;;;24.10;89.50;;;;;;5073331;28;20224;-82
2022/07/22 08:32:15;;;;;;;1.83;1.30;;;24.20;89.70;;;;;;5076928;28;20469;-84
2022/07/22 08:34:41;;;;;;;1.20;1.10;;;24.20;89.60;;;;;;5076441;28;20206;-83
2022/07/22 08:37:06;;;;;;;1.77;1.43;;;24.30;89.40;;;;;;5078338;28;20206;-83
2022/07/22 08:39:33;;;;;;;1.73;1.40;;;24.50;89.30;;;;;;5075947;28;20195;-83
2022/07/22 08:41:59;;;;;;;2.07;1.70;;;24.60;88.60;;;;;;5076273;28;20423;-84
2022/07/22 08:44:28;;;;;;;3.03;2.23;;;24.70;88.10;;;;;;5078378;28;20437;-83
2022/07/22 08:46:54;;;;;;;4.17;1.87;;;24.60;87.80;;;;;;5076996;28;20194;-82
2022/07/22 08:49:19;;;;;;;1.63;1.17;;;24.60;88.00;;;;;;5063727;28;20555;-82
2022/07/22 08:51:45;;;;;;;2.13;1.93;;;24.60;88.10;;;;;;5076641;28;20219;-81
2022/07/22 08:54:10;;;;;;;1.80;1.70;;;24.50;88.00;;;;;;5064897;28;20278;-82
2022/07/22 08:56:37;;;;;;;1.63;1.53;;;24.50;87.80;;;;;;5076959;28;20203;-82
2022/07/22 08:59:04;;;;;;;1.90;1.10;;;24.50;87.30;;;;;;5076023;28;20202;-82
2022/07/22 09:01:29;;;;;;;1.93;1.30;;;24.40;87.40;;;;;;5071282;28;20469;-83
2022/07/22 09:03:56;;;;;;;2.80;2.17;;;24.30;87.70;;;;;;5067869;28;20808;-83
2022/07/22 09:06:25;;;;;;;1.43;1.40;;;24.30;88.20;;;;;;5065827;28;20183;-83
2022/07/22 09:08:56;;;;;;;2.73;1.30;;;24.20;88.70;;;;;;5076057;28;20433;-82
2022/07/22 09:11:24;;;;;;;1.83;1.40;;;24.30;88.90;;;;;;5074436;28;20428;-83
2022/07/22 09:13:51;;;;;;;1.87;1.83;;;24.20;89.00;;;;;;5071051;28;20414;-83
2022/07/22 09:16:41;;;;;;;1.63;1.30;;;24.20;88.80;;;;;;5065811;28;20591;-83
2022/07/22 09:19:07;;;;;;;1.67;1.57;;;24.20;88.60;;;;;;5060526;28;20433;-84
2022/07/22 09:21:36;;;;;;;2.87;1.77;;;24.20;88.60;;;;;;5074479;28;21029;-83
2022/07/22 09:24:02;;;;;;;1.50;1.30;;;24.30;88.90;;;;;;5073943;28;20175;-84
2022/07/22 09:26:37;;;;;;;1.20;1.10;;;24.30;88.10;;;;;;5060310;28;20425;-85
2022/07/22 09:29:04;;;;;;;1.80;1.17;;;24.30;87.90;;;;;;5059657;28;20441;-85
2022/07/22 09:31:35;;;;;;;1.10;1.00;;;24.30;88.60;;;;;;5072522;28;20452;-86
2022/07/22 09:34:02;;;;;;;2.73;1.53;;;24.40;88.70;;;;;;5072102;28;20410;-85
2022/07/22 09:36:28;;;;;;;1.17;1.10;;;24.50;88.70;;;;;;5073574;28;20468;-86
2022/07/22 09:38:54;;;;;;;3.53;1.30;;;24.50;87.80;;;;;;5072753;28;20522;-85
2022/07/22 09:41:20;;;;;;;1.37;1.27;;;24.50;88.00;;;;;;5071915;28;20934;-85
2022/07/22 09:43:46;;;;;;;3.20;1.17;;;24.60;87.60;;;;;;5058822;28;20418;-85
2022/07/22 09:46:12;;;;;;;1.40;1.30;;;24.60;87.50;;;;;;5072520;28;20414;-85
2022/07/22 09:48:38;;;;;;;1.60;1.50;;;24.70;87.40;;;;;;5057684;28;20899;-85
2022/07/22 09:51:04;;;;;;;1.20;1.20;;;24.60;87.30;;;;;;5061013;28;20556;-85
2022/07/22 09:53:31;;;;;;;1.17;1.07;;;24.60;87.60;;;;;;5072482;28;20504;-84
2022/07/22 09:56:03;;;;;;;1.43;1.33;;;24.60;87.80;;;;;;5072409;28;20465;-85
2022/07/22 09:58:29;;;;;;;3.03;2.03;;;24.60;87.70;;;;;;5071810;28;20437;-85
2022/07/22 10:00:58;;;;;;;1.50;1.40;;;24.60;88.00;;;;;;5072334;28;20486;-86
2022/07/22 10:03:33;;;;;;;1.00;1.00;;;24.60;88.50;;;;;;5071444;28;20410;-84
2022/07/22 10:06:01;;;;;;;1.13;1.03;;;24.60;88.30;;;;;;5071738;28;20800;-86
2022/07/22 10:08:27;;;;;;;1.43;1.10;;;24.60;88.40;;;;;;5071983;28;20494;-85
2022/07/22 10:10:58;;;;;;;2.40;2.10;;;24.60;88.50;;;;;;5065263;28;20430;-85
2022/07/22 10:13:24;;;;;;;1.30;1.20;;;24.60;88.50;;;;;;5065966;28;20436;-85
2022/07/22 10:15:50;;;;;;;1.10;0.97;;;24.60;88.70;;;;;;5071813;28;20974;-85
2022/07/22 10:18:18;;;;;;;2.07;1.73;;;24.70;88.50;;;;;;5071745;28;20197;-86
2022/07/22 10:20:44;;;;;;;1.37;1.17;;;24.70;88.70;;;;;;5071237;28;20496;-84
2022/07/22 10:23:11;;;;;;;2.10;1.47;;;24.80;87.60;;;;;;5070573;28;20497;-85
2022/07/22 10:25:55;;;;;;;1.20;1.10;;;24.80;87.80;;;;;;5059644;28;20270;-85
2022/07/22 10:28:26;;;;;;;1.77;1.67;;;24.80;87.80;;;;;;5071734;28;20445;-85
2022/07/22 10:30:52;;;;;;;1.30;1.20;;;24.80;88.90;;;;;;5071247;28;20425;-85
2022/07/22 10:33:20;;;;;;;1.40;1.30;;;24.70;89.50;;;;;;5071469;28;20923;-84
2022/07/22 10:35:59;;;;;;;4.77;2.70;;;24.60;89.60;;;;;;5071813;28;20453;-85
2022/07/22 10:38:26;;;;;;;1.63;1.53;;;24.60;89.90;;;;;;5071692;28;20429;-85
2022/07/22 10:40:59;;;;;;;1.70;1.60;;;24.50;90.10;;;;;;5071782;28;20904;-85
2022/07/22 10:43:41;;;;;;;1.67;1.63;;;24.50;90.10;;;;;;5070539;28;20780;-85
2022/07/22 10:46:06;;;;;;;1.57;1.50;;;24.50;90.60;;;;;;5061329;28;20422;-84
2022/07/22 10:48:32;;;;;;;1.67;1.20;;;24.50;90.30;;;;;;5071544;28;20436;-85
2022/07/22 10:51:11;;;;;;;4.13;1.90;;;24.50;90.40;;;;;;5071476;28;20219;-84
2022/07/22 10:53:45;;;;;;;1.67;1.43;;;24.50;90.70;;;;;;5071235;28;20181;-84
2022/07/22 10:56:16;;;;;;;1.47;1.40;;;24.60;90.70;;;;;;5059310;28;20468;-85
2022/07/22 10:58:58;;;;;;;2.13;1.87;;;24.70;91.00;;;;;;5051334;28;20434;-84
2022/07/22 11:01:29;;;;;;;1.77;1.50;;;24.90;91.10;;;;;;5051581;28;20513;-85
2022/07/22 11:04:06;;;;;;;3.27;2.13;;;25.10;89.80;;;;;;5057384;28;20490;-84
2022/07/22 11:06:31;;;;;;;1.27;1.17;;;25.20;89.00;;;;;;5071012;28;20409;-84
2022/07/22 11:09:06;;;;;;;1.10;0.97;;;25.30;89.80;;;;;;5071183;28;20441;-84
2022/07/22 11:11:42;;;;;;;1.47;1.20;;;25.40;89.30;;;;;;5071351;28;20187;-85
2022/07/22 11:14:25;;;;;;;1.97;1.50;;;25.50;88.20;;;;;;5051234;28;20447;-85
2022/07/22 11:16:52;;;;;;;1.57;1.20;;;25.60;88.90;;;;;;5055125;28;20512;-84
2022/07/22 11:19:22;;;;;;;1.40;1.30;;;25.70;88.40;;;;;;5055500;28;20426;-85
2022/07/22 11:21:57;;;;;;;1.70;1.10;;;25.90;87.70;;;;;;5055312;28;20406;-87
2022/07/22 11:24:24;;;;;;;4.83;2.70;;;25.80;87.60;;;;;;5065943;28;20497;-84
2022/07/22 11:26:52;;;;;;;1.97;1.50;;;25.70;87.60;;;;;;5075279;28;20470;-85
2022/07/22 11:29:25;;;;;;;1.13;1.07;;;25.70;87.90;;;;;;5075006;28;20495;-85
2022/07/22 11:31:51;;;;;;;1.30;1.20;;;25.60;87.30;;;;;;5075375;28;20505;-84
2022/07/22 11:34:17;;;;;;;1.33;1.23;;;25.70;87.20;;;;;;5074829;28;20897;-85
2022/07/22 11:36:44;;;;;;;1.30;1.20;;;25.80;87.30;;;;;;5074942;28;20445;-85
2022/07/22 11:39:12;;;;;;;1.47;1.27;;;25.70;86.90;;;;;;5074640;28;20454;-85
2022/07/22 11:41:38;;;;;;;1.43;1.30;;;25.70;87.30;;;;;;5074821;28;20413;-85
2022/07/22 11:44:05;;;;;;;1.33;1.03;;;25.80;88.20;;;;;;5074997;28;20417;-85
2022/07/22 11:46:41;;;;;;;1.10;1.00;;;25.80;87.60;;;;;;5074741;28;20417;-85
2022/07/22 11:49:09;;;;;;;1.73;1.40;;;25.80;87.00;;;;;;5074621;28;20429;-84
2022/07/22 11:51:36;;;;;;;1.20;1.10;;;25.80;86.70;;;;;;5074462;28;20978;-85
2022/07/22 11:54:03;;;;;;;1.40;1.30;;;25.80;86.30;;;;;;5074410;28;20787;-85
2022/07/22 11:56:30;;;;;;;1.90;1.43;;;25.80;86.70;;;;;;5074521;28;21005;-85
2022/07/22 11:58:56;;;;;;;2.00;1.57;;;25.80;86.50;;;;;;5074543;28;20830;-85
2022/07/22 12:01:29;;;;;;;1.17;1.07;;;25.80;86.70;;;;;;5074464;28;20980;-85
2022/07/22 12:04:06;;;;;;;1.07;0.97;;;25.90;86.50;;;;;;5058946;28;20423;-85
2022/07/22 12:06:37;;;;;;;2.80;2.47;;;26.00;86.20;;;;;;5065231;28;20504;-85
2022/07/22 12:09:02;;;;;;;1.50;1.40;;;26.00;85.40;;;;;;5075571;28;20425;-85
2022/07/22 12:11:28;;;;;;;1.50;1.40;;;26.00;85.90;;;;;;5074225;28;20420;-85
2022/07/22 12:13:54;;;;;;;1.30;1.10;;;26.00;85.80;;;;;;5060465;28;20179;-85
2022/07/22 12:16:29;;;;;;;1.37;1.27;;;26.00;87.00;;;;;;5074217;28;20456;-84
2022/07/22 12:19:04;;;;;;;1.10;1.00;;;26.00;86.50;;;;;;5074245;28;20234;-85
2022/07/22 12:21:32;;;;;;;2.23;2.03;;;26.10;86.50;;;;;;5074261;28;20575;-85
2022/07/22 12:24:02;;;;;;;1.57;1.20;;;26.20;86.60;;;;;;5073923;28;20418;-85
2022/07/22 12:26:43;;;;;;;1.20;1.10;;;26.30;87.90;;;;;;5073397;28;20417;-85
2022/07/22 12:29:20;;;;;;;1.67;1.53;;;26.60;85.40;;;;;;5074136;28;20512;-84
2022/07/22 12:31:54;;;;;;;1.57;1.50;;;26.80;84.80;;;;;;5075341;28;20948;-85
2022/07/22 12:34:32;;;;;;;8.83;3.17;;;27.10;84.00;;;;;;5060556;28;20430;-86
2022/07/22 12:36:59;;;;;;;1.33;1.17;;;27.30;83.60;;;;;;5053795;28;20631;-85
2022/07/22 12:39:25;;;;;;;1.97;1.53;;;27.40;83.10;;;;;;5053899;28;20433;-85
2022/07/22 12:41:53;;;;;;;1.40;1.30;;;27.60;82.80;;;;;;5053780;28;20414;-86
2022/07/22 12:44:25;;;;;;;1.23;1.10;;;27.80;83.10;;;;;;5055936;28;20168;-85
2022/07/22 12:46:52;;;;;;;5.07;2.40;;;27.90;81.80;;;;;;5074050;28;20425;-85